Flight Track Log - Related Links

Times and Time Zones

All times are in EDT time to prevent confusion due to time zone crossing. See the RAX81 flight status page for this flight to view local times or setup timezone preferences in your user account.

Time Position Orientation Groundspeed Altitude Reporting Facility
EDT Latitude Longitude Course Direction KTS MPH feet Rate Location/Type
Fri 01:37:01 AM 33.8333 -84.4167 79° East 165 190 3,900  Level Atlanta TRACON
Fri 01:38:01 AM 33.8500 -84.3667 68° East 183 211 5,200 1,400 Climbing Atlanta TRACON
Fri 01:39:01 AM 33.8667 -84.3167 68° East 186 214 6,700 1,406 Climbing Atlanta TRACON
Fri 01:40:56 AM 33.9236 -84.2167 56° Northeast 184 212 9,300 1,303 Climbing Atlanta Center
Fri 01:41:56 AM 33.9528 -84.1689 54° Northeast 178 205 10,500 1,150 Climbing Atlanta Center
Fri 01:42:00 AM 33.8401 -84.0096 79° East  Level FlightAware Approximate
Fri 01:42:56 AM 33.9842 -84.1264 48° Northeast 178 205 11,600  Level Atlanta Center
Fri 01:43:56 AM 34.0175 -84.0814 48° Northeast 173 199 12,600 1,000 Climbing Atlanta Center
Fri 01:44:56 AM 34.0531 -84.0364 46° Northeast 178 205 13,600 950 Climbing Atlanta Center
Fri 01:45:56 AM 34.0844 -83.9886 52° Northeast 183 211 14,500 900 Climbing Atlanta Center
Fri 01:46:56 AM 34.1178 -83.9408 50° Northeast 183 211 15,400 800 Climbing Atlanta Center
Fri 01:47:56 AM 34.1469 -83.9008 49° Northeast 183 211 16,100 650 Climbing Atlanta Center
Fri 01:48:56 AM 34.1803 -83.8506 51° Northeast 188 216 16,700 650 Climbing Atlanta Center
Fri 01:49:56 AM 34.2178 -83.8028 46° Northeast 188 216 17,400 650 Climbing Atlanta Center
Fri 01:50:56 AM 34.2511 -83.7547 50° Northeast 188 216 18,000 600 Climbing Atlanta Center
Fri 01:51:56 AM 34.2864 -83.7019 51° Northeast 188 216 18,600 550 Climbing Atlanta Center
Fri 01:52:56 AM 34.3217 -83.6539 48° Northeast 188 216 19,100 550 Climbing Atlanta Center
Fri 01:53:56 AM 34.3611 -83.6008 48° Northeast 188 216 19,700 550 Climbing Atlanta Center
Fri 01:54:56 AM 34.3944 -83.5478 53° Northeast 188 216 20,200 500 Climbing Atlanta Center
Fri 01:55:56 AM 34.4317 -83.4997 47° Northeast 188 216 20,700 500 Climbing Atlanta Center
Fri 01:56:56 AM 34.4669 -83.4492 50° Northeast 188 216 21,200 500 Climbing Atlanta Center
Fri 01:57:56 AM 34.5022 -83.4011 48° Northeast 188 216 21,700 450 Climbing Atlanta Center
Fri 01:58:56 AM 34.5394 -83.3528 47° Northeast 183 211 22,100 350 Climbing Atlanta Center
Fri 01:59:56 AM 34.5725 -83.3022 52° Northeast 188 216 22,400 350 Climbing Atlanta Center
Fri 02:00:56 AM 34.6078 -83.2514 50° Northeast 188 216 22,800 350 Climbing Atlanta Center
Fri 02:01:56 AM 34.6450 -83.2031 47° Northeast 188 216 23,100 150 Climbing Atlanta Center
Fri 02:02:56 AM 34.6800 -83.1497 51° Northeast 194 223 23,100  Level Atlanta Center
Fri 02:03:56 AM 34.7131 -83.1014 50° Northeast 201 231 23,100  Level Atlanta Center
Fri 02:04:56 AM 34.7544 -83.0453 48° Northeast 210 242 23,100  Level Atlanta Center
Fri 02:05:56 AM 34.7936 -82.9892 50° Northeast 210 242 23,100  Level Atlanta Center
Fri 02:06:56 AM 34.8286 -82.9278 55° Northeast 210 242 23,100  Level Atlanta Center
Fri 02:07:56 AM 34.8697 -82.8717 48° Northeast 210 242 23,100  Level Atlanta Center
Fri 02:08:56 AM 34.9111 -82.8178 47° Northeast 210 242 23,100  Level Atlanta Center
Fri 02:09:56 AM 34.9481 -82.7642 50° Northeast 215 247 23,100  Level Atlanta Center
Fri 02:10:56 AM 34.9892 -82.7053 50° Northeast 209 241 23,100 -50 Level Atlanta Center
Fri 02:11:56 AM 35.0303 -82.6539 46° Northeast 209 241 23,000 -400 Descending Atlanta Center
Fri 02:12:56 AM 35.0714 -82.5897 52° Northeast 216 249 22,300 -600 Descending Atlanta Center
Fri 02:13:56 AM 35.1164 -82.5331 46° Northeast 227 261 21,800 -450 Descending Atlanta Center
Fri 02:14:56 AM 35.1617 -82.4686 49° Northeast 237 273 21,400 -350 Descending Atlanta Center
Fri 02:15:56 AM 35.2044 -82.4044 51° Northeast 242 278 21,100 -200 Descending Atlanta Center
Fri 02:16:56 AM 35.2475 -82.3450 48° Northeast 237 273 21,000 -50 Descending Atlanta Center
Fri 02:17:56 AM 35.2883 -82.2831 51° Northeast 237 273 21,000  Level Atlanta Center
Fri 02:18:56 AM 35.3294 -82.2261 48° Northeast 223 257 21,000  Level Atlanta Center
Fri 02:19:56 AM 35.3681 -82.1694 50° Northeast 216 249 21,000  Level Atlanta Center
Fri 02:20:56 AM 35.4069 -82.1097 51° Northeast 216 249 21,000  Level Atlanta Center
Fri 02:21:56 AM 35.4456 -82.0503 51° Northeast 216 249 21,000  Level Atlanta Center
Fri 02:22:56 AM 35.4803 -82.0011 49° Northeast 216 249 21,000  Level Atlanta Center
Fri 02:23:56 AM 35.5208 -81.9414 50° Northeast 211 243 21,000  Level Atlanta Center
Fri 02:24:56 AM 35.5594 -81.8842 50° Northeast 211 243 21,000  Level Atlanta Center
Fri 02:25:56 AM 35.5981 -81.8269 50° Northeast 211 243 21,000  Level Atlanta Center
Fri 02:26:56 AM 35.6389 -81.7697 49° Northeast 211 243 21,000  Level Atlanta Center
Fri 02:27:56 AM 35.6775 -81.7122 50° Northeast 211 243 21,000  Level Atlanta Center
Fri 02:28:56 AM 35.7200 -81.6522 49° Northeast 211 243 21,000  Level Atlanta Center
Fri 02:29:56 AM 35.7586 -81.5950 50° Northeast 216 249 21,000  Level Atlanta Center
Fri 02:30:56 AM 35.7969 -81.5375 51° Northeast 211 243 21,000  Level Atlanta Center
Fri 02:31:56 AM 35.8356 -81.4825 49° Northeast 211 243 21,000  Level Atlanta Center
Fri 02:32:56 AM 35.8761 -81.4247 49° Northeast 211 243 21,000  Level Atlanta Center
Fri 02:33:56 AM 35.9103 -81.3672 54° Northeast 211 243 21,000  Level Atlanta Center
Fri 02:34:56 AM 35.9467 -81.3200 46° Northeast 211 243 21,000  Level Atlanta Center
Fri 02:35:56 AM 35.9831 -81.2622 52° Northeast 211 243 21,000  Level Atlanta Center
Fri 02:36:56 AM 36.0192 -81.2044 52° Northeast 211 243 21,000  Level Atlanta Center
Fri 02:37:56 AM 36.0575 -81.1414 53° Northeast 211 243 21,000  Level Atlanta Center
Fri 02:38:56 AM 36.0936 -81.0864 51° Northeast 211 243 21,000  Level Atlanta Center
Fri 02:39:56 AM 36.1339 -81.0206 53° Northeast 211 243 21,000  Level Atlanta Center
Fri 02:40:56 AM 36.1719 -80.9625 51° Northeast 211 243 21,000  Level Atlanta Center
Fri 02:41:56 AM 36.2103 -80.9044 51° Northeast 211 243 21,000  Level Atlanta Center
Fri 02:43:00 AM 36.2418 -80.8351 61° Northeast  Level FlightAware Approximate
Fri 02:47:56 AM 36.4278 -80.5475 52° Northeast 211 243 21,000  Level Atlanta Center
Fri 02:50:00 AM 36.4799 -80.4049 51° Northeast  Level FlightAware Approximate
Fri 02:50:26 AM 36.5267 -80.4050 49° Northeast 219 252 21,000  Level Washington Center
Fri 02:51:00 AM 36.5174 -80.3463 51° Northeast  Level FlightAware Approximate
Fri 02:51:26 AM 36.5603 -80.3450 55° Northeast 219 252 21,000  Level Washington Center
Fri 02:52:00 AM 36.5548 -80.2876 52° Northeast  Level FlightAware Approximate
Fri 02:52:26 AM 36.5981 -80.2850 52° Northeast 214 246 21,000  Level Washington Center
Fri 02:53:00 AM 36.5922 -80.2289 52° Northeast  Level FlightAware Approximate
Fri 02:53:28 AM 36.6317 -80.2303 53° Northeast 220 253 21,000  Level Washington Center
Fri 02:54:26 AM 36.6672 -80.1728 52° Northeast 220 253 21,000  Level Washington Center
Fri 02:55:26 AM 36.7031 -80.1100 55° Northeast 220 253 21,000  Level Washington Center
Fri 02:56:26 AM 36.7383 -80.0553 51° Northeast 215 247 21,000  Level Washington Center
Fri 02:57:28 AM 36.7786 -79.9875 53° Northeast 215 247 21,000  Level Washington Center
Fri 02:58:26 AM 36.8161 -79.9300 51° Northeast 215 247 21,000  Level Washington Center
Fri 02:59:26 AM 36.8497 -79.8669 56° Northeast 215 247 21,000  Level Washington Center
Fri 03:00:26 AM 36.8872 -79.8092 51° Northeast 215 247 21,000  Level Washington Center
Fri 03:01:26 AM 36.9203 -79.7539 53° Northeast 215 247 21,000  Level Washington Center
Fri 03:02:26 AM 36.9581 -79.6908 53° Northeast 215 247 21,000  Level Washington Center
Fri 03:03:26 AM 36.9956 -79.6306 52° Northeast 215 247 21,000  Level Washington Center
Fri 03:04:27 AM 37.0375 -79.5650 51° Northeast 215 247 21,000  Level Washington Center
Fri 03:05:28 AM 37.0769 -79.5047 51° Northeast 215 247 21,000  Level Washington Center
Fri 03:06:28 AM 37.1164 -79.4467 50° Northeast 215 247 21,000  Level Washington Center
Fri 03:07:26 AM 37.1494 -79.3936 52° Northeast 215 247 21,000  Level Washington Center
Fri 03:08:26 AM 37.1889 -79.3331 51° Northeast 215 247 21,000  Level Washington Center
Fri 03:09:28 AM 37.2261 -79.2750 51° Northeast 215 247 21,000  Level Washington Center
Fri 03:10:26 AM 37.2678 -79.2064 53° Northeast 215 247 21,000  Level Washington Center
Fri 03:11:26 AM 37.3072 -79.1431 52° Northeast 215 247 21,000 -50 Level Washington Center
Fri 03:12:26 AM 37.3444 -79.0819 53° Northeast 215 247 20,900 -49 Descending Washington Center
Fri 03:13:28 AM 37.3817 -79.0211 52° Northeast 215 247 20,900  Level Washington Center
Fri 03:14:26 AM 37.4147 -78.9650 53° Northeast 215 247 20,900  Level Washington Center
Fri 03:15:27 AM 37.4519 -78.9011 54° Northeast 215 247 20,900  Level Washington Center
Fri 03:16:26 AM 37.4889 -78.8400 53° Northeast 215 247 20,900  Level Washington Center
Fri 03:17:28 AM 37.5306 -78.7711 53° Northeast 215 247 20,900  Level Washington Center
Fri 03:18:26 AM 37.5694 -78.7125 50° Northeast 215 247 20,900  Level Washington Center
Fri 03:19:26 AM 37.6067 -78.6483 54° Northeast 215 247 20,900  Level Washington Center
Fri 03:20:28 AM 37.6394 -78.5919 54° Northeast 215 247 20,900  Level Washington Center
Fri 03:21:29 AM 37.6783 -78.5331 50° Northeast 215 247 20,900  Level Washington Center
Fri 03:22:26 AM 37.7153 -78.4692 54° Northeast 215 247 20,900  Level Washington Center
Fri 03:23:26 AM 37.7522 -78.4100 52° Northeast 215 247 20,900  Level Washington Center
Fri 03:24:26 AM 37.7914 -78.3378 56° Northeast 215 247 20,900  Level Washington Center
Fri 03:25:26 AM 37.8306 -78.2736 52° Northeast 215 247 20,900  Level Washington Center
Fri 03:26:26 AM 37.8672 -78.2117 53° Northeast 215 247 20,900  Level Washington Center
Fri 03:27:26 AM 37.8936 -78.1547 60° Northeast 215 247 20,900  Level Washington Center
Fri 03:28:26 AM 37.9303 -78.0928 53° Northeast 215 247 20,900  Level Washington Center
Fri 03:29:28 AM 37.9669 -78.0308 53° Northeast 215 247 20,900  Level Washington Center
Fri 03:30:26 AM 38.0017 -77.9661 56° Northeast 215 247 20,900  Level Washington Center
Fri 03:31:26 AM 38.0383 -77.9092 51° Northeast 215 247 20,900  Level Washington Center
Fri 03:32:26 AM 38.0750 -77.8469 53° Northeast 215 247 20,900 -98 Level Washington Center
Fri 03:33:29 AM 38.1114 -77.7847 53° Northeast 215 247 20,700 -550 Descending Washington Center
Fri 03:34:26 AM 38.1503 -77.7119 56° Northeast 225 259 19,800 -872 Descending Washington Center
Fri 03:35:26 AM 38.1892 -77.6392 56° Northeast 236 272 19,000 -800 Descending Washington Center
Fri 03:36:26 AM 38.2342 -77.5664 52° Northeast 246 283 18,200 -793 Descending Washington Center
Fri 03:37:27 AM 38.2792 -77.4933 52° Northeast 251 289 17,400 -750 Descending Washington Center
Fri 03:38:26 AM 38.3219 -77.4178 54° Northeast 256 295 16,700 -706 Descending Washington Center
Fri 03:39:26 AM 38.3669 -77.3394 54° Northeast 262 302 16,000 -850 Descending Washington Center
Fri 03:40:26 AM 38.4139 -77.2636 52° Northeast 267 307 15,000 -935 Descending Washington Center
Fri 03:42:00 AM 38.4625 -77.1620 59° Northeast  Level FlightAware Approximate
Fri 03:48:12 AM 38.8000 -76.7000 North 246 283 7,800  Level Potomac TRACON
Fri 03:48:59 AM 38.8500 -76.7000 360° North 245 282 6,600 -1,234 Descending Potomac TRACON
Fri 03:49:00 AM 38.7027 -76.7333 North  Level FlightAware Approximate
Fri 03:49:59 AM 38.9167 -76.6833 11° North 223 257 5,600  Level Potomac TRACON
Fri 03:50:00 AM 38.7623 -76.7333 North  Level FlightAware Approximate
Fri 03:50:59 AM 38.9833 -76.6667 11° North 214 246 4,100  Level Potomac TRACON
Fri 03:51:00 AM 38.8201 -76.7160 North  Level FlightAware Approximate
Fri 03:51:59 AM 39.0333 -76.6500 15° North 215 247 2,500  Level Potomac TRACON
Fri 03:52:00 AM 38.8789 -76.7042 North  Level FlightAware Approximate
Fri 03:53:00 AM 38.9382 -76.7000 North  Level FlightAware Approximate
Fri 03:53:00 AM 39.1000 -76.6500 360° North 192 221 1,500  Level Potomac TRACON
Fri 03:54:01 AM 39.1333 -76.6333 21° North 157 181 800 -595 Descending Potomac TRACON
Fri 03:55:01 AM 39.1667 -76.6500 339° North 109 125 300 -500 Descending Potomac TRACON
Fri 03:57:00 AM 39.1667 -76.6667 North  Level FlightAware Approximate
Fri 04:04:00 AM 39.1754 -76.6683 North  Level Estimated
Fri 04:05:00 AM 39.1754 -76.6683 North  Level Estimated
Fri 04:06:00 AM 39.1754 -76.6683 North  Level Estimated
Fri 04:07:00 AM 39.1754 -76.6683 North  Level Estimated
Fri 04:08:00 AM 39.1754 -76.6683 North  Level Estimated
Fri 04:09:00 AM 39.1754 -76.6683 North  Level Estimated
Fri 04:10:00 AM 39.1754 -76.6683 North  Level Estimated
Fri 04:11:00 AM 39.1754 -76.6683 North  Level Estimated
Fri 04:12:00 AM 39.1754 -76.6683 North  Level Estimated

Login

Don't have an account? Register now (free) for customized features, flight alerts, and more!